^^
Saratoga-Weather Station Historical Data
Daily Summary for July 03, 2022 Units:  Both    English   Metric
Daily Weekly Monthly Yearly Custom
  High: Low: Average:
Temperature: 83.5 °F /  28.6 °C 57.2 °F /  14 °C 71.4 °F /  21.9 °C
Dew Point: 58.8 °F /  14.9 °C 52.3 °F /  11.3 °C 54.9 °F /  12.7 °C
Humidity: 85% 37% 58%
Wind Speed: 13mph /  20.9km/h - 2.6mph /  4.2km/h
Wind Gust: 14mph /  22.5km/h - -
Wind- - WSW
Pressure: 30.1 in /  1018.3 hPa 30 in /  1015.9 hPa -
Precipitation: 0 in /  0.0 mm    
Historical Graphs
 
 
Tabular Data for July 03, 2022
Time Temperature Dew Point Pressure Wind Wind Speed Wind Gust Humidity Rainfall Rate (Hourly) solar
00:04 65.7 °F /  18.7 °C 53.6 °F /  12 °C 30in /  1016.6hPa Calm     65% 0in /  0.0mm 0 W/m2
00:09 65.5 °F /  18.6 °C 53.8 °F /  12.1 °C 30in /  1016.3hPa WSW 0.9mph /  1.4km/h 1mph /  1.6km/h 66% 0in /  0.0mm 0 W/m2
00:14 65.5 °F /  18.6 °C 53.8 °F /  12.1 °C 30in /  1016.3hPa Calm   1mph /  1.6km/h 66% 0in /  0.0mm 0 W/m2
00:19 65.3 °F /  18.5 °C 53.6 °F /  12 °C 30in /  1016.3hPa WSW 0.9mph /  1.4km/h 1mph /  1.6km/h 66% 0in /  0.0mm 0 W/m2
00:24 65.1 °F /  18.4 °C 53.4 °F /  11.9 °C 30in /  1016.3hPa Calm   1mph /  1.6km/h 66% 0in /  0.0mm 0 W/m2
00:29 64.9 °F /  18.3 °C 53.8 °F /  12.1 °C 30in /  1016.3hPa WSW 0.9mph /  1.4km/h 1mph /  1.6km/h 67% 0in /  0.0mm 0 W/m2
00:34 64.8 °F /  18.2 °C 53.6 °F /  12 °C 30in /  1016.6hPa Calm   2mph /  3.2km/h 67% 0in /  0.0mm 0 W/m2
00:39 64.8 °F /  18.2 °C 53.6 °F /  12 °C 30in /  1016.6hPa Calm   2mph /  3.2km/h 67% 0in /  0.0mm 0 W/m2
00:44 64.9 °F /  18.3 °C 53.8 °F /  12.1 °C 30in /  1016.6hPa Calm   1mph /  1.6km/h 67% 0in /  0.0mm 0 W/m2
00:49 64.9 °F /  18.3 °C 53.8 °F /  12.1 °C 30in /  1016.6hPa Calm     67% 0in /  0.0mm 0 W/m2
00:54 64.9 °F /  18.3 °C 53.8 °F /  12.1 °C 30in /  1016.6hPa SW 0.9mph /  1.4km/h 1mph /  1.6km/h 67% 0in /  0.0mm 0 W/m2
00:59 64.9 °F /  18.3 °C 53.8 °F /  12.1 °C 30in /  1016.6hPa Calm     67% 0in /  0.0mm 0 W/m2
01:04 64.9 °F /  18.3 °C 53.8 °F /  12.1 °C 30in /  1016.6hPa Calm     67% 0in /  0.0mm 0 W/m2
01:10 64.8 °F /  18.2 °C 54 °F /  12.2 °C 30in /  1016.3hPa Calm     68% 0in /  0.0mm 0 W/m2
01:15 64.8 °F /  18.2 °C 54 °F /  12.2 °C 30in /  1016.3hPa Calm   1mph /  1.6km/h 68% 0in /  0.0mm 0 W/m2
01:20 64.6 °F /  18.1 °C 53.8 °F /  12.1 °C 30in /  1016.6hPa Calm   1mph /  1.6km/h 68% 0in /  0.0mm 0 W/m2
01:25 64.4 °F /  18 °C 54 °F /  12.2 °C 30in /  1016.6hPa Calm     69% 0in /  0.0mm 0 W/m2
01:30 64.2 °F /  17.9 °C 53.8 °F /  12.1 °C 30in /  1016.3hPa Calm   1mph /  1.6km/h 69% 0in /  0.0mm 0 W/m2
01:35 64 °F /  17.8 °C 53.6 °F /  12 °C 30in /  1016.3hPa Calm     69% 0in /  0.0mm 0 W/m2
01:40 63.9 °F /  17.7 °C 54 °F /  12.2 °C 30in /  1016.3hPa Calm     70% 0in /  0.0mm 0 W/m2
01:45 63.7 °F /  17.6 °C 53.8 °F /  12.1 °C 30in /  1016.6hPa Calm     70% 0in /  0.0mm 0 W/m2
01:50 63.3 °F /  17.4 °C 53.8 °F /  12.1 °C 30in /  1016.3hPa Calm     71% 0in /  0.0mm 0 W/m2
01:55 63.1 °F /  17.3 °C 53.6 °F /  12 °C 30in /  1016.6hPa Calm     71% 0in /  0.0mm 0 W/m2
02:00 63.1 °F /  17.3 °C 54 °F /  12.2 °C 30in /  1016.3hPa Calm     72% 0in /  0.0mm 0 W/m2
02:05 63 °F /  17.2 °C 53.8 °F /  12.1 °C 30in /  1016.3hPa Calm     72% 0in /  0.0mm 0 W/m2
02:10 62.6 °F /  17 °C 53.4 °F /  11.9 °C 30in /  1016.3hPa Calm     72% 0in /  0.0mm 0 W/m2
02:15 62.2 °F /  16.8 °C 53.4 °F /  11.9 °C 30in /  1016.6hPa Calm     73% 0in /  0.0mm 0 W/m2
02:20 62.1 °F /  16.7 °C 53.2 °F /  11.8 °C 30in /  1016.3hPa Calm     73% 0in /  0.0mm 0 W/m2
02:25 61.9 °F /  16.6 °C 53.4 °F /  11.9 °C 30in /  1016.3hPa Calm     74% 0in /  0.0mm 0 W/m2
02:30 61.5 °F /  16.4 °C 53.6 °F /  12 °C 30in /  1016.3hPa Calm     75% 0in /  0.0mm 0 W/m2
02:35 61.3 °F /  16.3 °C 53.4 °F /  11.9 °C 30in /  1016.3hPa Calm     75% 0in /  0.0mm 0 W/m2
02:40 61.2 °F /  16.2 °C 53.2 °F /  11.8 °C 30in /  1016.3hPa Calm     75% 0in /  0.0mm 0 W/m2
02:45 61.2 °F /  16.2 °C 53.6 °F /  12 °C 30in /  1016.3hPa Calm     76% 0in /  0.0mm 0 W/m2
02:50 61 °F /  16.1 °C 53.4 °F /  11.9 °C 30in /  1016.3hPa Calm     76% 0in /  0.0mm 0 W/m2
02:55 60.6 °F /  15.9 °C 53.1 °F /  11.7 °C 30in /  1016.3hPa Calm     76% 0in /  0.0mm 0 W/m2
03:00 60.4 °F /  15.8 °C 53.2 °F /  11.8 °C 30in /  1016.3hPa Calm     77% 0in /  0.0mm 0 W/m2
03:05 60.3 °F /  15.7 °C 53.4 °F /  11.9 °C 30in /  1016.3hPa Calm     78% 0in /  0.0mm 0 W/m2
03:10 60.1 °F /  15.6 °C 53.2 °F /  11.8 °C 30in /  1016.3hPa Calm   1mph /  1.6km/h 78% 0in /  0.0mm 0 W/m2
03:15 60.1 °F /  15.6 °C 53.2 °F /  11.8 °C 30in /  1016.3hPa Calm     78% 0in /  0.0mm 0 W/m2
03:20 59.7 °F /  15.4 °C 52.9 °F /  11.6 °C 30in /  1016.3hPa Calm   1mph /  1.6km/h 78% 0in /  0.0mm 0 W/m2
03:25 59.5 °F /  15.3 °C 53.1 °F /  11.7 °C 30in /  1016.3hPa Calm     79% 0in /  0.0mm 0 W/m2
03:30 59.5 °F /  15.3 °C 53.1 °F /  11.7 °C 30in /  1016.3hPa Calm     79% 0in /  0.0mm 0 W/m2
03:35 59.4 °F /  15.2 °C 52.9 °F /  11.6 °C 30in /  1016.3hPa Calm     79% 0in /  0.0mm 0 W/m2
03:40 59.2 °F /  15.1 °C 52.7 °F /  11.5 °C 30in /  1016.3hPa Calm     79% 0in /  0.0mm 0 W/m2
03:45 59.2 °F /  15.1 °C 52.7 °F /  11.5 °C 30in /  1016.3hPa Calm     79% 0in /  0.0mm 0 W/m2
03:50 59.2 °F /  15.1 °C 53.1 °F /  11.7 °C 30in /  1016.3hPa Calm     80% 0in /  0.0mm 0 W/m2
03:55 59.2 °F /  15.1 °C 53.1 °F /  11.7 °C 30in /  1016.3hPa Calm     80% 0in /  0.0mm 0 W/m2
04:00 59.2 °F /  15.1 °C 53.1 °F /  11.7 °C 30in /  1016.3hPa Calm     80% 0in /  0.0mm 0 W/m2
04:05 59 °F /  15 °C 52.9 °F /  11.6 °C 30in /  1016.3hPa Calm     80% 0in /  0.0mm 0 W/m2
04:10 59 °F /  15 °C 52.9 °F /  11.6 °C 30in /  1016.3hPa Calm     80% 0in /  0.0mm 0 W/m2
04:15 58.8 °F /  14.9 °C 53.1 °F /  11.7 °C 30in /  1016.3hPa Calm     81% 0in /  0.0mm 0 W/m2
04:20 58.8 °F /  14.9 °C 53.1 °F /  11.7 °C 30in /  1016.3hPa Calm     81% 0in /  0.0mm 0 W/m2
04:25 59 °F /  15 °C 52.9 °F /  11.6 °C 30in /  1016.3hPa Calm     80% 0in /  0.0mm 0 W/m2
04:30 59 °F /  15 °C 52.9 °F /  11.6 °C 30in /  1016.3hPa Calm     80% 0in /  0.0mm 0 W/m2
04:35 59 °F /  15 °C 52.9 °F /  11.6 °C 30in /  1016.3hPa Calm     80% 0in /  0.0mm 0 W/m2
04:40 58.8 °F /  14.9 °C 52.7 °F /  11.5 °C 30in /  1016.3hPa Calm     80% 0in /  0.0mm 0 W/m2
04:45 58.8 °F /  14.9 °C 53.1 °F /  11.7 °C 30in /  1016.3hPa Calm     81% 0in /  0.0mm 0 W/m2
04:50 58.6 °F /  14.8 °C 52.9 °F /  11.6 °C 30in /  1016.6hPa Calm     81% 0in /  0.0mm 0 W/m2
04:55 58.5 °F /  14.7 °C 52.7 °F /  11.5 °C 30in /  1016.6hPa Calm     81% 0in /  0.0mm 0 W/m2
05:01 58.5 °F /  14.7 °C 52.7 °F /  11.5 °C 30in /  1016.6hPa Calm     81% 0in /  0.0mm 0 W/m2
05:06 58.3 °F /  14.6 °C 52.5 °F /  11.4 °C 30in /  1016.6hPa Calm     81% 0in /  0.0mm 0 W/m2
05:11 58.1 °F /  14.5 °C 52.3 °F /  11.3 °C 30in /  1016.6hPa Calm     81% 0in /  0.0mm 0 W/m2
05:16 57.9 °F /  14.4 °C 52.5 °F /  11.4 °C 30in /  1016.6hPa Calm     82% 0in /  0.0mm 0 W/m2
05:21 57.7 °F /  14.3 °C 52.3 °F /  11.3 °C 30in /  1016.6hPa Calm     82% 0in /  0.0mm 0 W/m2
05:26 57.7 °F /  14.3 °C 52.7 °F /  11.5 °C 30in /  1016.6hPa Calm     83% 0in /  0.0mm 0 W/m2
05:31 57.6 °F /  14.2 °C 52.5 °F /  11.4 °C 30in /  1016.6hPa Calm     83% 0in /  0.0mm 0 W/m2
05:36 57.4 °F /  14.1 °C 52.3 °F /  11.3 °C 30in /  1016.6hPa Calm     83% 0in /  0.0mm 0 W/m2
05:41 57.4 °F /  14.1 °C 52.5 °F /  11.4 °C 30in /  1016.6hPa Calm     84% 0in /  0.0mm 5 W/m2
05:46 57.4 °F /  14.1 °C 52.3 °F /  11.3 °C 30in /  1016.6hPa Calm     83% 0in /  0.0mm 7 W/m2
05:51 57.4 °F /  14.1 °C 52.5 °F /  11.4 °C 30in /  1016.6hPa Calm     84% 0in /  0.0mm 9 W/m2
05:56 57.2 °F /  14 °C 52.3 °F /  11.3 °C 30in /  1016.6hPa Calm     84% 0in /  0.0mm 11 W/m2
06:01 57.2 °F /  14 °C 52.3 °F /  11.3 °C 30in /  1016.9hPa Calm     84% 0in /  0.0mm 12 W/m2
06:06 57.4 °F /  14.1 °C 52.9 °F /  11.6 °C 30in /  1016.9hPa Calm   1mph /  1.6km/h 85% 0in /  0.0mm 14 W/m2
06:11 57.4 °F /  14.1 °C 52.5 °F /  11.4 °C 30in /  1016.9hPa SW 0.9mph /  1.4km/h 1mph /  1.6km/h 84% 0in /  0.0mm 14 W/m2
06:16 57.6 °F /  14.2 °C 52.7 °F /  11.5 °C 30in /  1016.9hPa Calm     84% 0in /  0.0mm 16 W/m2
06:21 57.6 °F /  14.2 °C 52.7 °F /  11.5 °C 30in /  1016.9hPa Calm     84% 0in /  0.0mm 18 W/m2
06:26 57.7 °F /  14.3 °C 52.9 °F /  11.6 °C 30in /  1016.9hPa Calm     84% 0in /  0.0mm 19 W/m2
06:31 57.9 °F /  14.4 °C 53.1 °F /  11.7 °C 30in /  1016.9hPa Calm   1mph /  1.6km/h 84% 0in /  0.0mm 21 W/m2
06:36 57.9 °F /  14.4 °C 53.1 °F /  11.7 °C 30in /  1016.9hPa Calm     84% 0in /  0.0mm 21 W/m2
06:41 58.3 °F /  14.6 °C 53.4 °F /  11.9 °C 30in /  1016.9hPa Calm   1mph /  1.6km/h 84% 0in /  0.0mm 23 W/m2
06:46 58.5 °F /  14.7 °C 53.6 °F /  12 °C 30in /  1016.9hPa Calm     84% 0in /  0.0mm 23 W/m2
06:51 58.8 °F /  14.9 °C 53.6 °F /  12 °C 30in /  1016.9hPa Calm     83% 0in /  0.0mm 25 W/m2
06:56 59.2 °F /  15.1 °C 53.6 °F /  12 °C 30in /  1016.9hPa Calm   1mph /  1.6km/h 82% 0in /  0.0mm 25 W/m2
07:01 59.5 °F /  15.3 °C 54 °F /  12.2 °C 30in /  1016.9hPa Calm     82% 0in /  0.0mm 26 W/m2
07:06 59.9 °F /  15.5 °C 54.1 °F /  12.3 °C 30in /  1016.9hPa Calm     81% 0in /  0.0mm 26 W/m2
07:11 60.3 °F /  15.7 °C 54.1 °F /  12.3 °C 30in /  1016.9hPa Calm   1mph /  1.6km/h 80% 0in /  0.0mm 28 W/m2
07:16 60.4 °F /  15.8 °C 54.3 °F /  12.4 °C 30in /  1017.3hPa Calm     80% 0in /  0.0mm 28 W/m2
07:21 60.8 °F /  16 °C 54.7 °F /  12.6 °C 30in /  1017.3hPa Calm   1mph /  1.6km/h 80% 0in /  0.0mm 72 W/m2
07:26 61.3 °F /  16.3 °C 54.9 °F /  12.7 °C 30in /  1017.3hPa Calm     79% 0in /  0.0mm 169 W/m2
07:31 62.1 °F /  16.7 °C 55.4 °F /  13 °C 30in /  1017.3hPa Calm     79% 0in /  0.0mm 185 W/m2
07:36 63.1 °F /  17.3 °C 55.8 °F /  13.2 °C 30in /  1017.3hPa Calm     77% 0in /  0.0mm 200 W/m2
07:41 64.9 °F /  18.3 °C 56.1 °F /  13.4 °C 30in /  1017.3hPa West 0.9mph /  1.4km/h 1mph /  1.6km/h 73% 0in /  0.0mm 213 W/m2
07:46 66.4 °F /  19.1 °C 56.3 °F /  13.5 °C 30in /  1017.3hPa Calm   1mph /  1.6km/h 70% 0in /  0.0mm 230 W/m2
07:51 67.1 °F /  19.5 °C 56.1 °F /  13.4 °C 30in /  1017.3hPa Calm   1mph /  1.6km/h 68% 0in /  0.0mm 244 W/m2
07:56 68.4 °F /  20.2 °C 56.5 °F /  13.6 °C 30in /  1017.3hPa Calm     66% 0in /  0.0mm 257 W/m2
08:01 69.1 °F /  20.6 °C 56.8 °F /  13.8 °C 30in /  1017.3hPa Calm     65% 0in /  0.0mm 271 W/m2
08:06 70 °F /  21.1 °C 56.8 °F /  13.8 °C 30in /  1017.3hPa Calm   1mph /  1.6km/h 63% 0in /  0.0mm 283 W/m2
08:11 70.3 °F /  21.3 °C 57.2 °F /  14 °C 30in /  1017.3hPa Calm     63% 0in /  0.0mm 295 W/m2
08:16 70.9 °F /  21.6 °C 57.7 °F /  14.3 °C 30in /  1017.3hPa NNW 0.9mph /  1.4km/h 2mph /  3.2km/h 63% 0in /  0.0mm 313 W/m2
08:21 71.4 °F /  21.9 °C 56.8 °F /  13.8 °C 30in /  1017.3hPa ENE 0.9mph /  1.4km/h 2mph /  3.2km/h 60% 0in /  0.0mm 325 W/m2
08:26 72 °F /  22.2 °C 57.4 °F /  14.1 °C 30in /  1017.3hPa NE 0.9mph /  1.4km/h 2mph /  3.2km/h 60% 0in /  0.0mm 244 W/m2
08:31 72.1 °F /  22.3 °C 57 °F /  13.9 °C 30in /  1017.3hPa NNE 2mph /  3.2km/h 2mph /  3.2km/h 59% 0in /  0.0mm 86 W/m2
08:36 72.3 °F /  22.4 °C 57.2 °F /  14 °C 30in /  1017.3hPa Calm   2mph /  3.2km/h 59% 0in /  0.0mm 76 W/m2
08:41 73 °F /  22.8 °C 57.9 °F /  14.4 °C 30in /  1017.3hPa Calm   1mph /  1.6km/h 59% 0in /  0.0mm 44 W/m2
08:46 73.2 °F /  22.9 °C 57 °F /  13.9 °C 30in /  1017.3hPa WNW 0.9mph /  1.4km/h 2mph /  3.2km/h 57% 0in /  0.0mm 44 W/m2
08:51 72.9 °F /  22.7 °C 56.7 °F /  13.7 °C 30in /  1017.3hPa Calm   2mph /  3.2km/h 57% 0in /  0.0mm 44 W/m2
08:56 73.4 °F /  23 °C 57.2 °F /  14 °C 30in /  1017.3hPa ENE 0.9mph /  1.4km/h 2mph /  3.2km/h 57% 0in /  0.0mm 42 W/m2
09:01 73.6 °F /  23.1 °C 56.8 °F /  13.8 °C 30in /  1017.3hPa North 0.9mph /  1.4km/h 2mph /  3.2km/h 56% 0in /  0.0mm 42 W/m2
09:06 73 °F /  22.8 °C 56.8 °F /  13.8 °C 30in /  1016.9hPa Calm   1mph /  1.6km/h 57% 0in /  0.0mm 40 W/m2
09:11 73.6 °F /  23.1 °C 57.4 °F /  14.1 °C 30in /  1016.9hPa Calm   2mph /  3.2km/h 57% 0in /  0.0mm 40 W/m2
09:16 74.1 °F /  23.4 °C 56.8 °F /  13.8 °C 30in /  1016.9hPa North 0.9mph /  1.4km/h 2mph /  3.2km/h 55% 0in /  0.0mm 40 W/m2
09:21 73.9 °F /  23.3 °C 57.2 °F /  14 °C 30in /  1016.9hPa North 2mph /  3.2km/h 3mph /  4.8km/h 56% 0in /  0.0mm 42 W/m2
09:26 74.1 °F /  23.4 °C 57.9 °F /  14.4 °C 30in /  1016.9hPa NNE 0.9mph /  1.4km/h 2mph /  3.2km/h 57% 0in /  0.0mm 40 W/m2
09:31 74.7 °F /  23.7 °C 57.9 °F /  14.4 °C 30in /  1016.9hPa WSW 2mph /  3.2km/h 3mph /  4.8km/h 56% 0in /  0.0mm 40 W/m2
09:36 74.8 °F /  23.8 °C 57 °F /  13.9 °C 30in /  1016.9hPa SSW 2mph /  3.2km/h 4mph /  6.4km/h 54% 0in /  0.0mm 40 W/m2
09:41 75 °F /  23.9 °C 57.2 °F /  14 °C 30in /  1016.9hPa West 0.9mph /  1.4km/h 2mph /  3.2km/h 54% 0in /  0.0mm 40 W/m2
09:46 75.6 °F /  24.2 °C 57.2 °F /  14 °C 30in /  1016.9hPa ENE 0.9mph /  1.4km/h 4mph /  6.4km/h 53% 0in /  0.0mm 42 W/m2
09:51 75.7 °F /  24.3 °C 56.3 °F /  13.5 °C 30in /  1016.9hPa NW 2.9mph /  4.7km/h 5mph /  8km/h 51% 0in /  0.0mm 44 W/m2
09:56 75.6 °F /  24.2 °C 56.1 °F /  13.4 °C 30in /  1016.9hPa WNW 2mph /  3.2km/h 2mph /  3.2km/h 51% 0in /  0.0mm 162 W/m2
10:01 75.6 °F /  24.2 °C 56.1 °F /  13.4 °C 30in /  1016.9hPa West 6.9mph /  11.1km/h 7mph /  11.3km/h 51% 0in /  0.0mm 439 W/m2
10:06 75.6 °F /  24.2 °C 55.6 °F /  13.1 °C 30in /  1016.9hPa NW 0.9mph /  1.4km/h 3mph /  4.8km/h 50% 0in /  0.0mm 587 W/m2
10:11 75.7 °F /  24.3 °C 56.8 °F /  13.8 °C 30in /  1016.9hPa WSW 0.9mph /  1.4km/h 4mph /  6.4km/h 52% 0in /  0.0mm 573 W/m2
10:16 75.9 °F /  24.4 °C 57 °F /  13.9 °C 30in /  1016.9hPa West 4mph /  6.4km/h 5mph /  8km/h 52% 0in /  0.0mm 42 W/m2
10:21 75.7 °F /  24.3 °C 56.3 °F /  13.5 °C 30in /  1016.9hPa North 2mph /  3.2km/h 9mph /  14.5km/h 51% 0in /  0.0mm 153 W/m2
10:26 75.7 °F /  24.3 °C 55.8 °F /  13.2 °C 30in /  1016.9hPa NW 0.9mph /  1.4km/h 5mph /  8km/h 50% 0in /  0.0mm 635 W/m2
10:31 76.1 °F /  24.5 °C 56.7 °F /  13.7 °C 30in /  1016.9hPa East 2.9mph /  4.7km/h 8mph /  12.9km/h 51% 0in /  0.0mm 622 W/m2
10:36 76.5 °F /  24.7 °C 54.7 °F /  12.6 °C 30in /  1016.9hPa North 2mph /  3.2km/h 5mph /  8km/h 47% 0in /  0.0mm 671 W/m2
10:41 76.5 °F /  24.7 °C 54.7 °F /  12.6 °C 30in /  1016.9hPa NE 2mph /  3.2km/h 2mph /  3.2km/h 47% 0in /  0.0mm 693 W/m2
10:46 76.6 °F /  24.8 °C 54.3 °F /  12.4 °C 30in /  1016.9hPa ENE 2mph /  3.2km/h 6mph /  9.7km/h 46% 0in /  0.0mm 698 W/m2
10:51 76.6 °F /  24.8 °C 54.9 °F /  12.7 °C 30in /  1016.9hPa SSW 0.9mph /  1.4km/h 7mph /  11.3km/h 47% 0in /  0.0mm 703 W/m2
10:56 77.2 °F /  25.1 °C 54.9 °F /  12.7 °C 30in /  1016.9hPa NW 4.9mph /  7.9km/h 5mph /  8km/h 46% 0in /  0.0mm 717 W/m2
11:01 77.2 °F /  25.1 °C 54.1 °F /  12.3 °C 30in /  1016.9hPa NW 2mph /  3.2km/h 7mph /  11.3km/h 45% 0in /  0.0mm 696 W/m2
11:06 77.4 °F /  25.2 °C 54.3 °F /  12.4 °C 30in /  1016.9hPa West 6mph /  9.7km/h 8mph /  12.9km/h 45% 0in /  0.0mm 744 W/m2
11:11 77.7 °F /  25.4 °C 55.2 °F /  12.9 °C 30in /  1016.9hPa Calm   2mph /  3.2km/h 46% 0in /  0.0mm 752 W/m2
11:16 78.4 °F /  25.8 °C 54.7 °F /  12.6 °C 30in /  1016.9hPa Calm   3mph /  4.8km/h 44% 0in /  0.0mm 761 W/m2
11:21 78.4 °F /  25.8 °C 54.1 °F /  12.3 °C 30in /  1016.9hPa WNW 2mph /  3.2km/h 6mph /  9.7km/h 43% 0in /  0.0mm 773 W/m2
11:26 78.4 °F /  25.8 °C 54.1 °F /  12.3 °C 30in /  1016.9hPa NW 2.9mph /  4.7km/h 9mph /  14.5km/h 43% 0in /  0.0mm 788 W/m2
11:31 78.4 °F /  25.8 °C 52.7 °F /  11.5 °C 30in /  1016.9hPa WNW 4mph /  6.4km/h 12mph /  19.3km/h 41% 0in /  0.0mm 768 W/m2
11:36 78.1 °F /  25.6 °C 53.1 °F /  11.7 °C 30in /  1016.9hPa West 2mph /  3.2km/h 7mph /  11.3km/h 42% 0in /  0.0mm 805 W/m2
11:41 78.3 °F /  25.7 °C 53.2 °F /  11.8 °C 30in /  1016.9hPa NW 2mph /  3.2km/h 10mph /  16.1km/h 42% 0in /  0.0mm 821 W/m2
11:46 78.3 °F /  25.7 °C 54 °F /  12.2 °C 30in /  1016.9hPa NW 2mph /  3.2km/h 6mph /  9.7km/h 43% 0in /  0.0mm 779 W/m2
11:51 78.4 °F /  25.8 °C 53.4 °F /  11.9 °C 30in /  1016.9hPa East 2mph /  3.2km/h 5mph /  8km/h 42% 0in /  0.0mm 856 W/m2
11:56 78.6 °F /  25.9 °C 54.3 °F /  12.4 °C 30in /  1016.9hPa WSW 2.9mph /  4.7km/h 6mph /  9.7km/h 43% 0in /  0.0mm 773 W/m2
12:01 79 °F /  26.1 °C 55.2 °F /  12.9 °C 30in /  1016.9hPa WSW 0.9mph /  1.4km/h 7mph /  11.3km/h 44% 0in /  0.0mm 819 W/m2
12:06 79.3 °F /  26.3 °C 54.3 °F /  12.4 °C 30in /  1016.9hPa East 2mph /  3.2km/h 4mph /  6.4km/h 42% 0in /  0.0mm 830 W/m2
12:11 79.5 °F /  26.4 °C 53.8 °F /  12.1 °C 30in /  1016.9hPa West 2.9mph /  4.7km/h 4mph /  6.4km/h 41% 0in /  0.0mm 875 W/m2
12:16 79.9 °F /  26.6 °C 54.1 °F /  12.3 °C 30in /  1016.9hPa SE 0.9mph /  1.4km/h 4mph /  6.4km/h 41% 0in /  0.0mm 896 W/m2
12:21 79.9 °F /  26.6 °C 54.1 °F /  12.3 °C 30in /  1016.9hPa NW 2.9mph /  4.7km/h 5mph /  8km/h 41% 0in /  0.0mm 828 W/m2
12:26 80.1 °F /  26.7 °C 53.6 °F /  12 °C 30in /  1016.9hPa West 4mph /  6.4km/h 10mph /  16.1km/h 40% 0in /  0.0mm 898 W/m2
12:31 80.2 °F /  26.8 °C 54.3 °F /  12.4 °C 30in /  1016.9hPa West 0.9mph /  1.4km/h 4mph /  6.4km/h 41% 0in /  0.0mm 944 W/m2
12:36 79.9 °F /  26.6 °C 54.1 °F /  12.3 °C 30in /  1016.9hPa WSW 2.9mph /  4.7km/h 10mph /  16.1km/h 41% 0in /  0.0mm 826 W/m2
12:41 79.7 °F /  26.5 °C 54 °F /  12.2 °C 30in /  1016.6hPa East 2mph /  3.2km/h 4mph /  6.4km/h 41% 0in /  0.0mm 863 W/m2
12:46 80.2 °F /  26.8 °C 55 °F /  12.8 °C 30in /  1016.6hPa NW 2.9mph /  4.7km/h 4mph /  6.4km/h 42% 0in /  0.0mm 967 W/m2
12:51 80.4 °F /  26.9 °C 54 °F /  12.2 °C 30in /  1016.6hPa SE 2.9mph /  4.7km/h 5mph /  8km/h 40% 0in /  0.0mm 884 W/m2
12:56 80.4 °F /  26.9 °C 54 °F /  12.2 °C 30in /  1016.6hPa WNW 4mph /  6.4km/h 11mph /  17.7km/h 40% 0in /  0.0mm 918 W/m2
13:01 80.8 °F /  27.1 °C 54.9 °F /  12.7 °C 30in /  1016.6hPa WNW 12.1mph /  19.5km/h 12mph /  19.3km/h 41% 0in /  0.0mm 928 W/m2
13:06 81 °F /  27.2 °C 52.9 °F /  11.6 °C 30in /  1016.6hPa West 10.1mph /  16.3km/h 12mph /  19.3km/h 38% 0in /  0.0mm 918 W/m2
13:11 81 °F /  27.2 °C 52.9 °F /  11.6 °C 30in /  1016.6hPa WSW 2.9mph /  4.7km/h 8mph /  12.9km/h 38% 0in /  0.0mm 979 W/m2
13:16 81.3 °F /  27.4 °C 54.7 °F /  12.6 °C 30in /  1016.6hPa SE 0.9mph /  1.4km/h 12mph /  19.3km/h 40% 0in /  0.0mm 990 W/m2
13:22 81.1 °F /  27.3 °C 52.3 °F /  11.3 °C 30in /  1016.6hPa NNE 2mph /  3.2km/h 10mph /  16.1km/h 37% 0in /  0.0mm 956 W/m2
13:27 81.1 °F /  27.3 °C 53.1 °F /  11.7 °C 30in /  1016.6hPa SE 4mph /  6.4km/h 7mph /  11.3km/h 38% 0in /  0.0mm 951 W/m2
13:32 81.3 °F /  27.4 °C 53.2 °F /  11.8 °C 30in /  1016.6hPa NNW 2.9mph /  4.7km/h 8mph /  12.9km/h 38% 0in /  0.0mm 933 W/m2
13:37 81.5 °F /  27.5 °C 52.7 °F /  11.5 °C 30in /  1016.6hPa West 4mph /  6.4km/h 8mph /  12.9km/h 37% 0in /  0.0mm 932 W/m2
13:42 81.5 °F /  27.5 °C 52.7 °F /  11.5 °C 30in /  1016.3hPa NW 0.9mph /  1.4km/h 4mph /  6.4km/h 37% 0in /  0.0mm 991 W/m2
13:47 81.7 °F /  27.6 °C 53.6 °F /  12 °C 30in /  1016.3hPa West 4mph /  6.4km/h 8mph /  12.9km/h 38% 0in /  0.0mm 960 W/m2
13:52 81.7 °F /  27.6 °C 53.6 °F /  12 °C 30in /  1016.3hPa West 4mph /  6.4km/h 9mph /  14.5km/h 38% 0in /  0.0mm 974 W/m2
13:57 81.3 °F /  27.4 °C 54 °F /  12.2 °C 30in /  1016.3hPa West 6.9mph /  11.1km/h 8mph /  12.9km/h 39% 0in /  0.0mm 1018 W/m2
14:02 81.7 °F /  27.6 °C 55.8 °F /  13.2 °C 30in /  1016.3hPa West 2mph /  3.2km/h 10mph /  16.1km/h 41% 0in /  0.0mm 1009 W/m2
14:07 82 °F /  27.8 °C 55.9 °F /  13.3 °C 30in /  1016.3hPa NNW 6mph /  9.7km/h 8mph /  12.9km/h 41% 0in /  0.0mm 962 W/m2
14:12 82 °F /  27.8 °C 55.4 °F /  13 °C 30in /  1016.3hPa NW 4.9mph /  7.9km/h 11mph /  17.7km/h 40% 0in /  0.0mm 970 W/m2
14:17 81.9 °F /  27.7 °C 53.8 °F /  12.1 °C 30in /  1016.3hPa WNW 6.9mph /  11.1km/h 13mph /  20.9km/h 38% 0in /  0.0mm 1042 W/m2
14:22 81.7 °F /  27.6 °C 54.3 °F /  12.4 °C 30in /  1016.3hPa SW 4.9mph /  7.9km/h 6mph /  9.7km/h 39% 0in /  0.0mm 1035 W/m2
14:27 81.9 °F /  27.7 °C 54.5 °F /  12.5 °C 30in /  1016.3hPa NW 4mph /  6.4km/h 7mph /  11.3km/h 39% 0in /  0.0mm 1000 W/m2
14:32 82 °F /  27.8 °C 54 °F /  12.2 °C 30in /  1016.3hPa SW 2mph /  3.2km/h 7mph /  11.3km/h 38% 0in /  0.0mm 258 W/m2
14:37 82.4 °F /  28 °C 54.3 °F /  12.4 °C 30in /  1016.3hPa West 2.9mph /  4.7km/h 9mph /  14.5km/h 38% 0in /  0.0mm 287 W/m2
14:42 82.2 °F /  27.9 °C 54.1 °F /  12.3 °C 30in /  1016.3hPa West 6.9mph /  11.1km/h 7mph /  11.3km/h 38% 0in /  0.0mm 1023 W/m2
14:47 82 °F /  27.8 °C 54 °F /  12.2 °C 30in /  1016.3hPa WNW 0.9mph /  1.4km/h 2mph /  3.2km/h 38% 0in /  0.0mm 540 W/m2
14:52 82.6 °F /  28.1 °C 55 °F /  12.8 °C 30in /  1016.3hPa ENE 2mph /  3.2km/h 4mph /  6.4km/h 39% 0in /  0.0mm 991 W/m2
14:57 82.6 °F /  28.1 °C 55 °F /  12.8 °C 30in /  1015.9hPa WNW 2mph /  3.2km/h 4mph /  6.4km/h 39% 0in /  0.0mm 1002 W/m2
15:02 82.6 °F /  28.1 °C 53.6 °F /  12 °C 30in /  1016.3hPa WNW 4.9mph /  7.9km/h 14mph /  22.5km/h 37% 0in /  0.0mm 949 W/m2
15:07 82.6 °F /  28.1 °C 54.3 °F /  12.4 °C 30in /  1015.9hPa SE 0.9mph /  1.4km/h 3mph /  4.8km/h 38% 0in /  0.0mm 919 W/m2
15:12 82.6 °F /  28.1 °C 53.6 °F /  12 °C 30in /  1015.9hPa WNW 4mph /  6.4km/h 10mph /  16.1km/h 37% 0in /  0.0mm 896 W/m2
15:17 82 °F /  27.8 °C 53.2 °F /  11.8 °C 30in /  1015.9hPa South 4mph /  6.4km/h 14mph /  22.5km/h 37% 0in /  0.0mm 926 W/m2
15:22 81.5 °F /  27.5 °C 54.1 °F /  12.3 °C 30in /  1015.9hPa SW 4.9mph /  7.9km/h 10mph /  16.1km/h 39% 0in /  0.0mm 881 W/m2
15:27 81.7 °F /  27.6 °C 54.3 °F /  12.4 °C 30in /  1015.9hPa West 6.9mph /  11.1km/h 14mph /  22.5km/h 39% 0in /  0.0mm 912 W/m2
15:32 82.2 °F /  27.9 °C 54.9 °F /  12.7 °C 30in /  1015.9hPa WNW 6.9mph /  11.1km/h 9mph /  14.5km/h 39% 0in /  0.0mm 877 W/m2
15:37 82.2 °F /  27.9 °C 54.9 °F /  12.7 °C 30in /  1015.9hPa WNW 4mph /  6.4km/h 8mph /  12.9km/h 39% 0in /  0.0mm 870 W/m2
15:42 82.6 °F /  28.1 °C 54.3 °F /  12.4 °C 30in /  1015.9hPa West 6.9mph /  11.1km/h 14mph /  22.5km/h 38% 0in /  0.0mm 877 W/m2
15:47 82.4 °F /  28 °C 55 °F /  12.8 °C 30in /  1015.9hPa WSW 4.9mph /  7.9km/h 10mph /  16.1km/h 39% 0in /  0.0mm 874 W/m2
15:52 82.8 °F /  28.2 °C 54.5 °F /  12.5 °C 30in /  1015.9hPa West 4mph /  6.4km/h 12mph /  19.3km/h 38% 0in /  0.0mm 817 W/m2
15:57 83.5 °F /  28.6 °C 55.2 °F /  12.9 °C 30in /  1016.3hPa WSW 6.9mph /  11.1km/h 7mph /  11.3km/h 38% 0in /  0.0mm 844 W/m2
16:02 82.8 °F /  28.2 °C 54.5 °F /  12.5 °C 30in /  1015.9hPa NW 4mph /  6.4km/h 10mph /  16.1km/h 38% 0in /  0.0mm 141 W/m2
16:07 82.6 °F /  28.1 °C 54.3 °F /  12.4 °C 30in /  1015.9hPa West 4mph /  6.4km/h 12mph /  19.3km/h 38% 0in /  0.0mm 911 W/m2
16:12 82.8 °F /  28.2 °C 54.5 °F /  12.5 °C 30in /  1015.9hPa NW 0.9mph /  1.4km/h 10mph /  16.1km/h 38% 0in /  0.0mm 888 W/m2
16:17 82.2 °F /  27.9 °C 54.9 °F /  12.7 °C 30in /  1016.3hPa WSW 2.9mph /  4.7km/h 8mph /  12.9km/h 39% 0in /  0.0mm 865 W/m2
16:22 82.4 °F /  28 °C 55 °F /  12.8 °C 30in /  1015.9hPa NW 2mph /  3.2km/h 8mph /  12.9km/h 39% 0in /  0.0mm 782 W/m2
16:27 82.6 °F /  28.1 °C 55 °F /  12.8 °C 30in /  1015.9hPa West 8.1mph /  13km/h 8mph /  12.9km/h 39% 0in /  0.0mm 809 W/m2
16:32 82.6 °F /  28.1 °C 57.2 °F /  14 °C 30in /  1015.9hPa WNW 6.9mph /  11.1km/h 12mph /  19.3km/h 42% 0in /  0.0mm 770 W/m2
16:37 82.4 °F /  28 °C 58.3 °F /  14.6 °C 30in /  1016.3hPa WNW 4mph /  6.4km/h 9mph /  14.5km/h 44% 0in /  0.0mm 786 W/m2
16:42 81.9 °F /  27.7 °C 55.2 °F /  12.9 °C 30in /  1015.9hPa West 4mph /  6.4km/h 10mph /  16.1km/h 40% 0in /  0.0mm 780 W/m2
16:47 82 °F /  27.8 °C 57.9 °F /  14.4 °C 30in /  1016.3hPa WNW 6.9mph /  11.1km/h 9mph /  14.5km/h 44% 0in /  0.0mm 772 W/m2
16:52 81.9 °F /  27.7 °C 58.5 °F /  14.7 °C 30in /  1016.3hPa West 6.9mph /  11.1km/h 11mph /  17.7km/h 45% 0in /  0.0mm 114 W/m2
16:57 81.1 °F /  27.3 °C 58.5 °F /  14.7 °C 30in /  1016.3hPa West 6.9mph /  11.1km/h 12mph /  19.3km/h 46% 0in /  0.0mm 717 W/m2
17:02 80.8 °F /  27.1 °C 58.1 °F /  14.5 °C 30in /  1016.3hPa WNW 4mph /  6.4km/h 8mph /  12.9km/h 46% 0in /  0.0mm 668 W/m2
17:07 81 °F /  27.2 °C 58.8 °F /  14.9 °C 30in /  1016.3hPa WNW 8.9mph /  14.3km/h 12mph /  19.3km/h 47% 0in /  0.0mm 617 W/m2
17:12 80.6 °F /  27 °C 58.5 °F /  14.7 °C 30in /  1016.3hPa NW 11mph /  17.7km/h 13mph /  20.9km/h 47% 0in /  0.0mm 684 W/m2
17:17 80.4 °F /  26.9 °C 58.3 °F /  14.6 °C 30in /  1016.3hPa West 6mph /  9.7km/h 12mph /  19.3km/h 47% 0in /  0.0mm 640 W/m2
17:22 80.1 °F /  26.7 °C 58.6 °F /  14.8 °C 30in /  1016.3hPa NW 11mph /  17.7km/h 13mph /  20.9km/h 48% 0in /  0.0mm 640 W/m2
17:27 80.2 °F /  26.8 °C 58.1 °F /  14.5 °C 30in /  1015.9hPa NNW 8.1mph /  13km/h 9mph /  14.5km/h 47% 0in /  0.0mm 638 W/m2
17:32 80.2 °F /  26.8 °C 58.1 °F /  14.5 °C 30in /  1015.9hPa NW 2.9mph /  4.7km/h 8mph /  12.9km/h 47% 0in /  0.0mm 624 W/m2
17:37 80.4 °F /  26.9 °C 57.7 °F /  14.3 °C 30in /  1015.9hPa SW 13mph /  20.9km/h 13mph /  20.9km/h 46% 0in /  0.0mm 612 W/m2
17:42 80.2 °F /  26.8 °C 57.6 °F /  14.2 °C 30in /  1015.9hPa WNW 10.1mph /  16.3km/h 11mph /  17.7km/h 46% 0in /  0.0mm 591 W/m2
17:47 80.2 °F /  26.8 °C 58.1 °F /  14.5 °C 30in /  1015.9hPa NW 2.9mph /  4.7km/h 10mph /  16.1km/h 47% 0in /  0.0mm 596 W/m2
17:52 80.2 °F /  26.8 °C 58.1 °F /  14.5 °C 30in /  1015.9hPa NW 2mph /  3.2km/h 6mph /  9.7km/h 47% 0in /  0.0mm 531 W/m2
17:57 80.2 °F /  26.8 °C 57.6 °F /  14.2 °C 30in /  1015.9hPa WSW 8.9mph /  14.3km/h 12mph /  19.3km/h 46% 0in /  0.0mm 536 W/m2
18:02 80.1 °F /  26.7 °C 58.1 °F /  14.5 °C 30in /  1015.9hPa NNW 6mph /  9.7km/h 9mph /  14.5km/h 47% 0in /  0.0mm 541 W/m2
18:07 80.1 °F /  26.7 °C 58.6 °F /  14.8 °C 30in /  1015.9hPa West 8.9mph /  14.3km/h 14mph /  22.5km/h 48% 0in /  0.0mm 512 W/m2
18:12 79.9 °F /  26.6 °C 58.5 °F /  14.7 °C 30in /  1015.9hPa WSW 2.9mph /  4.7km/h 9mph /  14.5km/h 48% 0in /  0.0mm 510 W/m2
18:17 80.1 °F /  26.7 °C 58.6 °F /  14.8 °C 30in /  1015.9hPa WNW 2.9mph /  4.7km/h 14mph /  22.5km/h 48% 0in /  0.0mm 513 W/m2
18:22 80.1 °F /  26.7 °C 58.1 °F /  14.5 °C 30in /  1015.9hPa WNW 6mph /  9.7km/h 13mph /  20.9km/h 47% 0in /  0.0mm 496 W/m2
18:27 79.9 °F /  26.6 °C 57.9 °F /  14.4 °C 30in /  1015.9hPa WNW 11mph /  17.7km/h 11mph /  17.7km/h 47% 0in /  0.0mm 466 W/m2
18:32 79.5 °F /  26.4 °C 57.6 °F /  14.2 °C 30in /  1016.3hPa SSW 8.1mph /  13km/h 13mph /  20.9km/h 47% 0in /  0.0mm 413 W/m2
18:37 79 °F /  26.1 °C 57.6 °F /  14.2 °C 30in /  1016.3hPa WNW 4.9mph /  7.9km/h 11mph /  17.7km/h 48% 0in /  0.0mm 380 W/m2
18:42 78.8 °F /  26 °C 57.4 °F /  14.1 °C 30in /  1016.3hPa West 11mph /  17.7km/h 11mph /  17.7km/h 48% 0in /  0.0mm 364 W/m2
18:47 78.6 °F /  25.9 °C 56.7 °F /  13.7 °C 30in /  1016.3hPa WSW 6.9mph /  11.1km/h 10mph /  16.1km/h 47% 0in /  0.0mm 336 W/m2
18:52 78.4 °F /  25.8 °C 57.2 °F /  14 °C 30in /  1016.3hPa West 6mph /  9.7km/h 9mph /  14.5km/h 48% 0in /  0.0mm 178 W/m2
18:57 78.6 °F /  25.9 °C 57.2 °F /  14 °C 30in /  1015.9hPa NW 4.9mph /  7.9km/h 9mph /  14.5km/h 48% 0in /  0.0mm 62 W/m2
19:02 78.4 °F /  25.8 °C 57.2 °F /  14 °C 30in /  1015.9hPa SW 6.9mph /  11.1km/h 9mph /  14.5km/h 48% 0in /  0.0mm 56 W/m2
19:07 78.4 °F /  25.8 °C 57.2 °F /  14 °C 30in /  1016.3hPa WSW 8.1mph /  13km/h 13mph /  20.9km/h 48% 0in /  0.0mm 63 W/m2
19:12 78.1 °F /  25.6 °C 56.8 °F /  13.8 °C 30in /  1016.3hPa WNW 2.9mph /  4.7km/h 10mph /  16.1km/h 48% 0in /  0.0mm 63 W/m2
19:17 77.9 °F /  25.5 °C 56.7 °F /  13.7 °C 30in /  1016.3hPa West 8.9mph /  14.3km/h 14mph /  22.5km/h 48% 0in /  0.0mm 60 W/m2
19:22 77.7 °F /  25.4 °C 56.5 °F /  13.6 °C 30in /  1016.3hPa West 8.1mph /  13km/h 11mph /  17.7km/h 48% 0in /  0.0mm 56 W/m2
19:27 77.4 °F /  25.2 °C 56.1 °F /  13.4 °C 30in /  1016.3hPa WNW 4.9mph /  7.9km/h 14mph /  22.5km/h 48% 0in /  0.0mm 53 W/m2
19:32 77.2 °F /  25.1 °C 56.5 °F /  13.6 °C 30in /  1016.3hPa WSW 4mph /  6.4km/h 9mph /  14.5km/h 49% 0in /  0.0mm 51 W/m2
19:37 76.8 °F /  24.9 °C 56.3 °F /  13.5 °C 30in /  1016.3hPa West 2mph /  3.2km/h 8mph /  12.9km/h 49% 0in /  0.0mm 54 W/m2
19:42 76.8 °F /  24.9 °C 56.3 °F /  13.5 °C 30in /  1016.3hPa WSW 10.1mph /  16.3km/h 14mph /  22.5km/h 49% 0in /  0.0mm 58 W/m2
19:47 76.5 °F /  24.7 °C 55.9 °F /  13.3 °C 30in /  1016.3hPa WNW 4mph /  6.4km/h 10mph /  16.1km/h 49% 0in /  0.0mm 56 W/m2
19:52 76.5 °F /  24.7 °C 55.9 °F /  13.3 °C 30in /  1016.3hPa WSW 4mph /  6.4km/h 13mph /  20.9km/h 49% 0in /  0.0mm 56 W/m2
19:57 76.5 °F /  24.7 °C 56.5 °F /  13.6 °C 30in /  1016.3hPa NW 2mph /  3.2km/h 10mph /  16.1km/h 50% 0in /  0.0mm 51 W/m2
20:02 76.5 °F /  24.7 °C 56.5 °F /  13.6 °C 30in /  1016.3hPa WSW 4mph /  6.4km/h 9mph /  14.5km/h 50% 0in /  0.0mm 158 W/m2
20:07 76.1 °F /  24.5 °C 56.7 °F /  13.7 °C 30in /  1016.3hPa WSW 8.9mph /  14.3km/h 9mph /  14.5km/h 51% 0in /  0.0mm 44 W/m2
20:12 75.7 °F /  24.3 °C 56.3 °F /  13.5 °C 30in /  1016.3hPa NW 11mph /  17.7km/h 12mph /  19.3km/h 51% 0in /  0.0mm 42 W/m2
20:17 75.6 °F /  24.2 °C 56.1 °F /  13.4 °C 30in /  1016.3hPa NNW 2.9mph /  4.7km/h 9mph /  14.5km/h 51% 0in /  0.0mm 40 W/m2
20:22 75.4 °F /  24.1 °C 56.5 °F /  13.6 °C 30in /  1016.3hPa WSW 8.1mph /  13km/h 11mph /  17.7km/h 52% 0in /  0.0mm 39 W/m2
20:27 75 °F /  23.9 °C 55.6 °F /  13.1 °C 30in /  1016.3hPa WNW 4mph /  6.4km/h 12mph /  19.3km/h 51% 0in /  0.0mm 39 W/m2
20:32 74.8 °F /  23.8 °C 56.1 °F /  13.4 °C 30in /  1016.3hPa NW 4mph /  6.4km/h 10mph /  16.1km/h 52% 0in /  0.0mm 37 W/m2
20:37 74.7 °F /  23.7 °C 55.9 °F /  13.3 °C 30in /  1016.3hPa WNW 4.9mph /  7.9km/h 12mph /  19.3km/h 52% 0in /  0.0mm 35 W/m2
20:42 74.3 °F /  23.5 °C 55.6 °F /  13.1 °C 30in /  1016.3hPa NW 8.1mph /  13km/h 11mph /  17.7km/h 52% 0in /  0.0mm 32 W/m2
20:47 74.1 °F /  23.4 °C 55.9 °F /  13.3 °C 30in /  1016.3hPa WNW 6.9mph /  11.1km/h 8mph /  12.9km/h 53% 0in /  0.0mm 46 W/m2
20:52 73.9 °F /  23.3 °C 55.8 °F /  13.2 °C 30in /  1016.3hPa WNW 2.9mph /  4.7km/h 10mph /  16.1km/h 53% 0in /  0.0mm 58 W/m2
20:57 73.8 °F /  23.2 °C 56.1 °F /  13.4 °C 30in /  1016.6hPa WSW 6.9mph /  11.1km/h 8mph /  12.9km/h 54% 0in /  0.0mm 53 W/m2
21:02 73.4 °F /  23 °C 55.8 °F /  13.2 °C 30in /  1016.6hPa NW 0.9mph /  1.4km/h 8mph /  12.9km/h 54% 0in /  0.0mm 44 W/m2
21:07 73.2 °F /  22.9 °C 55.6 °F /  13.1 °C 30in /  1016.6hPa NW 2.9mph /  4.7km/h 7mph /  11.3km/h 54% 0in /  0.0mm 37 W/m2
21:12 73 °F /  22.8 °C 55.4 °F /  13 °C 30in /  1016.6hPa WNW 2.9mph /  4.7km/h 9mph /  14.5km/h 54% 0in /  0.0mm 28 W/m2
21:17 72.7 °F /  22.6 °C 55 °F /  12.8 °C 30in /  1016.6hPa NNW 4mph /  6.4km/h 11mph /  17.7km/h 54% 0in /  0.0mm 14 W/m2
21:22 72.1 °F /  22.3 °C 55 °F /  12.8 °C 30in /  1016.6hPa WSW 6mph /  9.7km/h 9mph /  14.5km/h 55% 0in /  0.0mm 12 W/m2
21:28 71.8 °F /  22.1 °C 55.2 °F /  12.9 °C 30in /  1016.6hPa West 2.9mph /  4.7km/h 6mph /  9.7km/h 56% 0in /  0.0mm 11 W/m2
21:33 71.4 °F /  21.9 °C 54.9 °F /  12.7 °C 30in /  1016.9hPa WNW 4mph /  6.4km/h 8mph /  12.9km/h 56% 0in /  0.0mm 7 W/m2
21:38 71.2 °F /  21.8 °C 55.2 °F /  12.9 °C 30in /  1016.9hPa WSW 4mph /  6.4km/h 6mph /  9.7km/h 57% 0in /  0.0mm 5 W/m2
21:43 70.9 °F /  21.6 °C 54.9 °F /  12.7 °C 30in /  1016.9hPa WSW 2mph /  3.2km/h 8mph /  12.9km/h 57% 0in /  0.0mm 5 W/m2
21:48 70.5 °F /  21.4 °C 55 °F /  12.8 °C 30in /  1016.9hPa WSW 4mph /  6.4km/h 4mph /  6.4km/h 58% 0in /  0.0mm 0 W/m2
21:53 70.3 °F /  21.3 °C 54.9 °F /  12.7 °C 30in /  1016.9hPa West 2mph /  3.2km/h 4mph /  6.4km/h 58% 0in /  0.0mm 0 W/m2
21:58 70.2 °F /  21.2 °C 54.7 °F /  12.6 °C 30in /  1017.3hPa WSW 2mph /  3.2km/h 7mph /  11.3km/h 58% 0in /  0.0mm 0 W/m2
22:03 69.8 °F /  21 °C 54.9 °F /  12.7 °C 30in /  1017.3hPa WNW 6.9mph /  11.1km/h 8mph /  12.9km/h 59% 0in /  0.0mm 0 W/m2
22:08 69.6 °F /  20.9 °C 54.7 °F /  12.6 °C 30in /  1017.3hPa SW 4mph /  6.4km/h 10mph /  16.1km/h 59% 0in /  0.0mm 0 W/m2
22:13 69.4 °F /  20.8 °C 54.5 °F /  12.5 °C 30.1in /  1017.6hPa West 2.9mph /  4.7km/h 8mph /  12.9km/h 59% 0in /  0.0mm 0 W/m2
22:18 69.4 °F /  20.8 °C 54.5 °F /  12.5 °C 30.1in /  1017.6hPa WNW 2.9mph /  4.7km/h 6mph /  9.7km/h 59% 0in /  0.0mm 0 W/m2
22:23 69.3 °F /  20.7 °C 54.3 °F /  12.4 °C 30.1in /  1017.6hPa SW 8.1mph /  13km/h 9mph /  14.5km/h 59% 0in /  0.0mm 0 W/m2
22:28 69.1 °F /  20.6 °C 54.1 °F /  12.3 °C 30.1in /  1018.0hPa WNW 2.9mph /  4.7km/h 6mph /  9.7km/h 59% 0in /  0.0mm 0 W/m2
22:33 68.7 °F /  20.4 °C 53.8 °F /  12.1 °C 30.1in /  1018.0hPa West 2.9mph /  4.7km/h 4mph /  6.4km/h 59% 0in /  0.0mm 0 W/m2
22:38 68.5 °F /  20.3 °C 54.1 °F /  12.3 °C 30.1in /  1018.0hPa WSW 2.9mph /  4.7km/h 7mph /  11.3km/h 60% 0in /  0.0mm 0 W/m2
22:43 68.4 °F /  20.2 °C 54 °F /  12.2 °C 30.1in /  1018.0hPa West 4mph /  6.4km/h 9mph /  14.5km/h 60% 0in /  0.0mm 0 W/m2
22:48 68.2 °F /  20.1 °C 54.1 °F /  12.3 °C 30.1in /  1018.0hPa NW 2mph /  3.2km/h 6mph /  9.7km/h 61% 0in /  0.0mm 0 W/m2
22:53 67.8 °F /  19.9 °C 54 °F /  12.2 °C 30.1in /  1018.0hPa NW 2.9mph /  4.7km/h 9mph /  14.5km/h 61% 0in /  0.0mm 0 W/m2
22:58 67.6 °F /  19.8 °C 53.8 °F /  12.1 °C 30.1in /  1018.0hPa West 2mph /  3.2km/h 4mph /  6.4km/h 61% 0in /  0.0mm 0 W/m2
23:03 67.5 °F /  19.7 °C 54 °F /  12.2 °C 30.1in /  1018.0hPa WSW 2.9mph /  4.7km/h 4mph /  6.4km/h 62% 0in /  0.0mm 0 W/m2
23:08 67.3 °F /  19.6 °C 54.3 °F /  12.4 °C 30.1in /  1018.0hPa West 2mph /  3.2km/h 4mph /  6.4km/h 63% 0in /  0.0mm 0 W/m2
23:13 66.9 °F /  19.4 °C 54 °F /  12.2 °C 30.1in /  1018.0hPa West 2.9mph /  4.7km/h 3mph /  4.8km/h 63% 0in /  0.0mm 0 W/m2
23:18 66.6 °F /  19.2 °C 54 °F /  12.2 °C 30.1in /  1018.0hPa West 2.9mph /  4.7km/h 4mph /  6.4km/h 64% 0in /  0.0mm 0 W/m2
23:23 66.4 °F /  19.1 °C 53.8 °F /  12.1 °C 30.1in /  1018.0hPa West 2mph /  3.2km/h 6mph /  9.7km/h 64% 0in /  0.0mm 0 W/m2
23:28 66.2 °F /  19 °C 54.1 °F /  12.3 °C 30.1in /  1018.0hPa WSW 2.9mph /  4.7km/h 3mph /  4.8km/h 65% 0in /  0.0mm 0 W/m2
23:33 65.8 °F /  18.8 °C 53.8 °F /  12.1 °C 30.1in /  1018.0hPa West 0.9mph /  1.4km/h 3mph /  4.8km/h 65% 0in /  0.0mm 0 W/m2
23:38 65.5 °F /  18.6 °C 53.8 °F /  12.1 °C 30.1in /  1018.0hPa West 2mph /  3.2km/h 3mph /  4.8km/h 66% 0in /  0.0mm 0 W/m2
23:43 65.1 °F /  18.4 °C 53.4 °F /  11.9 °C 30.1in /  1018.0hPa WSW 2mph /  3.2km/h 4mph /  6.4km/h 66% 0in /  0.0mm 0 W/m2
23:48 64.9 °F /  18.3 °C 53.8 °F /  12.1 °C 30.1in /  1018.0hPa West 2mph /  3.2km/h 3mph /  4.8km/h 67% 0in /  0.0mm 0 W/m2
23:53 64.8 °F /  18.2 °C 53.6 °F /  12 °C 30.1in /  1018.3hPa West 6mph /  9.7km/h 6mph /  9.7km/h 67% 0in /  0.0mm 0 W/m2
23:58 64.9 °F /  18.3 °C 53.8 °F /  12.1 °C 30.1in /  1018.3hPa West 2mph /  3.2km/h 5mph /  8km/h 67% 0in /  0.0mm 0 W/m2
Juneau County Weather
Compliments of Weather Underground - 4 mb